createdAt,value
2018-08-03T00:00:40.541Z,95506.30
2018-08-03T00:03:09.294Z,95505.72
2018-08-03T00:05:37.964Z,95500.98
2018-08-03T00:08:06.879Z,95494.13
2018-08-03T00:10:35.490Z,95496.33
2018-08-03T00:13:04.433Z,95491.98
2018-08-03T00:15:33.087Z,95489.61
2018-08-03T00:18:01.759Z,95482.77
2018-08-03T00:20:30.360Z,95485.11
2018-08-03T00:22:59.049Z,95486.88
2018-08-03T00:25:27.699Z,95487.06
2018-08-03T00:27:56.363Z,95482.69
2018-08-03T00:30:25.023Z,95490.33
2018-08-03T00:32:53.934Z,95486.97
2018-08-03T00:35:22.594Z,95494.83
2018-08-03T00:37:51.213Z,95488.80
2018-08-03T00:40:19.913Z,95493.15
2018-08-03T00:42:48.782Z,95494.89
2018-08-03T00:45:17.485Z,95493.95
2018-08-03T00:47:46.195Z,95494.95
2018-08-03T00:50:14.883Z,95496.48
2018-08-03T00:52:43.547Z,95494.92
2018-08-03T00:55:12.151Z,95497.68
2018-08-03T00:57:40.872Z,95493.73
2018-08-03T01:00:09.638Z,95494.93
2018-08-03T01:02:38.582Z,95466.14
2018-08-03T01:05:07.279Z,95498.83
2018-08-03T01:07:35.921Z,95501.95
2018-08-03T01:10:05.203Z,95501.33
2018-08-03T01:12:33.867Z,95508.95
2018-08-03T01:15:02.503Z,95504.55
2018-08-03T01:17:31.125Z,95501.55
2018-08-03T01:19:59.763Z,95500.22
2018-08-03T01:22:28.366Z,95507.06
2018-08-03T01:24:57.004Z,95502.90
2018-08-03T01:27:25.615Z,95499.92
2018-08-03T01:29:54.598Z,95505.97
2018-08-03T01:32:23.567Z,95505.76
2018-08-03T01:34:52.286Z,95507.30
2018-08-03T01:37:21.008Z,95507.31
2018-08-03T01:39:49.775Z,95505.79
2018-08-03T01:42:18.423Z,95507.03
2018-08-03T01:44:47.059Z,95504.11
2018-08-03T01:47:15.705Z,95506.06
2018-08-03T01:49:44.351Z,95508.03
2018-08-03T01:52:12.971Z,95500.05
2018-08-03T01:54:41.625Z,95503.00
2018-08-03T01:57:10.298Z,95513.20
2018-08-03T01:59:38.987Z,95511.45
2018-08-03T02:02:07.699Z,95515.99
2018-08-03T02:04:36.340Z,95512.88
2018-08-03T02:07:05.232Z,95512.60
2018-08-03T02:09:33.944Z,95510.08
2018-08-03T02:12:02.848Z,95513.10
2018-08-03T02:14:31.570Z,95513.67
2018-08-03T02:17:00.296Z,95512.30
2018-08-03T02:19:29.167Z,95506.06
2018-08-03T02:21:58.142Z,95511.34
2018-08-03T02:24:26.821Z,95511.14
2018-08-03T02:26:55.423Z,95509.19
2018-08-03T02:29:24.140Z,95510.55
2018-08-03T02:31:52.846Z,95520.75
2018-08-03T02:34:21.646Z,95515.44
2018-08-03T02:36:50.331Z,95521.11
2018-08-03T02:39:19.265Z,95523.28
2018-08-03T02:41:47.935Z,95524.27
2018-08-03T02:44:17.255Z,95528.77
2018-08-03T02:46:45.951Z,95533.03
2018-08-03T02:49:14.584Z,95537.91
2018-08-03T02:51:43.222Z,95532.43
2018-08-03T02:54:11.864Z,95528.88
2018-08-03T02:56:40.514Z,95535.38
2018-08-03T02:59:09.464Z,95531.20
2018-08-03T03:01:38.110Z,95537.05
2018-08-03T03:04:06.970Z,95538.44
2018-08-03T03:06:35.595Z,95535.52
2018-08-03T03:09:05.088Z,95536.89
2018-08-03T03:11:33.710Z,95539.19
2018-08-03T03:14:02.389Z,95535.49
2018-08-03T03:16:31.004Z,95533.97
2018-08-03T03:18:59.669Z,95531.46
2018-08-03T03:21:28.370Z,95534.52
2018-08-03T03:23:56.964Z,95535.09
2018-08-03T03:26:25.607Z,95541.71
2018-08-03T03:28:54.251Z,95547.95
2018-08-03T03:31:22.921Z,95542.98
2018-08-03T03:33:51.564Z,95547.67
2018-08-03T03:36:20.285Z,95546.16
2018-08-03T03:38:48.935Z,95549.50
2018-08-03T03:41:17.640Z,95548.50
2018-08-03T03:43:46.579Z,95555.52
2018-08-03T03:46:15.268Z,95552.45
2018-08-03T03:48:43.882Z,95552.82
2018-08-03T03:51:12.589Z,95553.95
2018-08-03T03:53:41.266Z,95557.08
2018-08-03T03:56:10.249Z,95567.09
2018-08-03T03:58:38.919Z,95568.64
2018-08-03T04:01:07.602Z,95569.09
2018-08-03T04:03:36.496Z,95579.50
2018-08-03T04:06:05.375Z,95582.03
2018-08-03T04:08:34.054Z,95574.03
2018-08-03T04:11:02.851Z,95575.88
2018-08-03T04:13:31.533Z,95572.25
2018-08-03T04:16:00.855Z,95573.05
2018-08-03T04:18:29.484Z,95572.44
2018-08-03T04:20:58.091Z,95578.88
2018-08-03T04:23:27.025Z,95579.23
2018-08-03T04:25:55.962Z,95581.56
2018-08-03T04:28:24.686Z,95578.42
2018-08-03T04:30:53.344Z,95580.24
2018-08-03T04:33:22.038Z,95583.98
2018-08-03T04:35:50.658Z,95581.61
2018-08-03T04:38:19.319Z,95583.20
2018-08-03T04:40:47.931Z,95588.46
2018-08-03T04:43:16.622Z,95586.09
2018-08-03T04:45:45.224Z,95595.13
2018-08-03T04:48:13.843Z,95597.84
2018-08-03T04:50:42.435Z,95594.91
2018-08-03T04:53:11.046Z,95597.74
2018-08-03T04:55:39.658Z,95599.92
2018-08-03T04:58:08.311Z,95600.86
2018-08-03T05:00:36.985Z,95602.94
2018-08-03T05:03:05.694Z,95600.77
2018-08-03T05:05:34.343Z,95599.94
2018-08-03T05:08:02.955Z,95604.69
2018-08-03T05:10:31.646Z,95600.37
2018-08-03T05:13:00.540Z,95604.11
2018-08-03T05:15:29.223Z,95606.65
2018-08-03T05:17:58.178Z,95608.03
2018-08-03T05:20:26.846Z,95606.86
2018-08-03T05:22:55.512Z,95610.17
2018-08-03T05:25:24.201Z,95606.27
2018-08-03T05:27:52.859Z,95606.45
2018-08-03T05:30:21.598Z,95609.88
2018-08-03T05:32:50.250Z,95607.84
2018-08-03T05:35:19.054Z,95612.37
2018-08-03T05:37:47.739Z,95609.42
2018-08-03T05:40:16.446Z,95607.16
2018-08-03T05:42:45.435Z,95611.61
2018-08-03T05:45:14.143Z,95616.79
2018-08-03T05:47:42.752Z,95614.67
2018-08-03T05:50:11.739Z,95612.47
2018-08-03T05:52:40.363Z,95611.27
2018-08-03T05:55:09.016Z,95610.74
2018-08-03T05:57:37.726Z,95608.70
2018-08-03T06:00:08.045Z,95611.09
2018-08-03T06:02:36.787Z,95614.62
2018-08-03T06:05:06.514Z,95615.19
2018-08-03T06:07:35.125Z,95616.30
2018-08-03T06:10:03.876Z,95621.76
2018-08-03T06:12:32.923Z,95625.46
2018-08-03T06:15:01.656Z,95625.95
2018-08-03T06:17:30.321Z,95624.34
2018-08-03T06:19:59.262Z,95617.34
2018-08-03T06:22:28.785Z,95616.31
2018-08-03T06:24:57.467Z,95616.06
2018-08-03T06:27:26.106Z,95612.69
2018-08-03T06:29:54.759Z,95608.03
2018-08-03T06:32:23.887Z,95608.75
2018-08-03T06:34:52.590Z,95618.03
2018-08-03T06:37:21.227Z,95615.54
2018-08-03T06:39:50.158Z,95615.48
2018-08-03T06:42:18.826Z,95612.50
2018-08-03T06:44:47.499Z,95609.48
2018-08-03T06:47:16.742Z,95612.77
2018-08-03T06:49:45.373Z,95620.57
2018-08-03T06:52:14.383Z,95618.66
2018-08-03T06:54:43.303Z,95610.34
2018-08-03T06:57:12.214Z,95611.13
2018-08-03T06:59:41.148Z,95614.92
2018-08-03T07:02:09.872Z,95606.56
2018-08-03T07:04:38.516Z,95607.59
2018-08-03T07:07:07.181Z,95607.69
2018-08-03T07:09:35.851Z,95614.89
2018-08-03T07:12:04.599Z,95619.22
2018-08-03T07:14:33.499Z,95613.28
2018-08-03T07:17:02.184Z,95623.62
2018-08-03T07:19:30.854Z,95620.23
2018-08-03T07:21:59.745Z,95623.18
2018-08-03T07:24:28.444Z,95618.33
2018-08-03T07:26:57.104Z,95619.42
2018-08-03T07:29:25.778Z,95625.02
2018-08-03T07:31:54.728Z,95618.25
2018-08-03T07:34:23.432Z,95617.87
2018-08-03T07:36:52.381Z,95616.28
2018-08-03T07:39:21.566Z,95620.39
2018-08-03T07:41:50.231Z,95615.67
2018-08-03T07:44:19.701Z,95622.90
2018-08-03T07:46:48.610Z,95617.86
2018-08-03T07:49:17.259Z,95616.10
2018-08-03T07:51:45.982Z,95620.02
2018-08-03T07:54:14.918Z,95623.98
2018-08-03T07:56:43.530Z,95622.62
2018-08-03T07:59:12.179Z,95625.50
2018-08-03T08:01:41.042Z,95623.22
2018-08-03T08:04:10.278Z,95630.09
2018-08-03T08:06:39.183Z,95633.52
2018-08-03T08:09:09.982Z,95633.69
2018-08-03T08:11:38.934Z,95635.50
2018-08-03T08:14:08.183Z,95628.33
2018-08-03T08:16:36.979Z,95630.27
2018-08-03T08:19:05.889Z,95641.28
2018-08-03T08:21:34.524Z,95632.64
2018-08-03T08:24:03.547Z,95635.41
2018-08-03T08:26:32.150Z,95628.02
2018-08-03T08:29:00.861Z,95623.46
2018-08-03T08:31:29.930Z,95623.27
2018-08-03T08:33:58.682Z,95622.41
2018-08-03T08:36:27.931Z,95621.92
2018-08-03T08:38:56.551Z,95615.84
2018-08-03T08:41:25.806Z,95617.79
2018-08-03T08:43:54.566Z,95619.92
2018-08-03T08:46:23.089Z,95614.20
2018-08-03T08:48:52.012Z,95617.95
2018-08-03T08:51:21.096Z,95609.29
2018-08-03T08:53:49.747Z,95614.39
2018-08-03T08:56:18.395Z,95613.53
2018-08-03T08:58:47.059Z,95608.63
2018-08-03T09:01:15.780Z,95610.31
2018-08-03T09:03:44.707Z,95622.84
2018-08-03T09:06:13.428Z,95607.97
2018-08-03T09:08:42.066Z,95614.41
2018-08-03T09:11:10.875Z,95605.59
2018-08-03T09:13:39.504Z,95611.69
2018-08-03T09:16:08.594Z,95609.41
2018-08-03T09:18:37.386Z,95610.84
2018-08-03T09:21:06.247Z,95599.81
2018-08-03T09:23:34.863Z,95599.67
2018-08-03T09:26:03.495Z,95604.20
2018-08-03T09:28:32.156Z,95600.46
2018-08-03T09:31:00.809Z,95602.70
2018-08-03T09:33:29.462Z,95601.47
2018-08-03T09:35:59.307Z,95595.28
2018-08-03T09:38:27.998Z,95585.73
2018-08-03T09:40:57.218Z,95587.13
2018-08-03T09:43:26.731Z,95584.65
2018-08-03T09:45:55.829Z,95584.31
2018-08-03T09:48:24.475Z,95586.98
2018-08-03T09:50:53.350Z,95584.36
2018-08-03T09:53:22.240Z,95583.12
2018-08-03T09:55:50.921Z,95582.47
2018-08-03T09:58:20.037Z,95582.42
2018-08-03T10:00:54.023Z,95580.42
2018-08-03T10:03:22.885Z,95578.88
2018-08-03T10:05:51.757Z,95578.22
2018-08-03T10:08:20.895Z,95580.80
2018-08-03T10:10:49.599Z,95564.70
2018-08-03T10:13:18.581Z,95572.50
2018-08-03T10:15:47.372Z,95566.98
2018-08-03T10:18:16.171Z,95566.50
2018-08-03T10:20:45.065Z,95569.91
2018-08-03T10:23:14.254Z,95572.17
2018-08-03T10:25:42.942Z,95570.58
2018-08-03T10:28:11.759Z,95559.59
2018-08-03T10:30:40.655Z,95564.00
2018-08-03T10:33:09.588Z,95560.26
2018-08-03T10:35:38.235Z,95553.02
2018-08-03T10:38:06.891Z,95537.94
2018-08-03T10:40:35.786Z,95537.08
2018-08-03T10:43:04.825Z,95529.56
2018-08-03T10:45:33.970Z,95540.25
2018-08-03T10:48:02.656Z,95535.92
2018-08-03T10:50:31.719Z,95523.36
2018-08-03T10:53:00.417Z,95524.52
2018-08-03T10:55:29.078Z,95529.34
2018-08-03T10:57:57.716Z,95524.63
2018-08-03T11:00:30.068Z,95523.39
2018-08-03T11:02:59.187Z,95531.26
2018-08-03T11:05:28.482Z,95525.69
2018-08-03T11:07:57.239Z,95526.95
2018-08-03T11:10:26.454Z,95525.31
2018-08-03T11:12:55.351Z,95522.27
2018-08-03T11:15:24.345Z,95526.58
2018-08-03T11:17:53.323Z,95520.70
2018-08-03T11:20:22.555Z,95513.27
2018-08-03T11:22:51.512Z,95525.20
2018-08-03T11:25:20.191Z,95519.65
2018-08-03T11:27:49.467Z,95517.16
2018-08-03T11:30:18.431Z,95514.39
2018-08-03T11:32:47.114Z,95507.98
2018-08-03T11:35:16.032Z,95512.65
2018-08-03T11:37:44.806Z,95515.99
2018-08-03T11:40:13.571Z,95514.95
2018-08-03T11:42:42.258Z,95519.07
2018-08-03T11:45:11.954Z,95521.66
2018-08-03T11:47:40.829Z,95506.77
2018-08-03T11:50:10.865Z,95511.73
2018-08-03T11:52:40.204Z,95502.30
2018-08-03T11:55:08.898Z,95504.19
2018-08-03T11:57:37.838Z,95505.98
2018-08-03T12:00:06.668Z,95501.80
2018-08-03T12:02:35.654Z,95496.41
2018-08-03T12:05:04.712Z,95496.77
2018-08-03T12:07:33.379Z,95492.84
2018-08-03T12:10:02.335Z,95494.72
2018-08-03T12:12:31.030Z,95492.48
2018-08-03T12:14:59.702Z,95487.48
2018-08-03T12:17:28.945Z,95481.66
2018-08-03T12:19:57.934Z,95475.73
2018-08-03T12:22:26.603Z,95476.16
2018-08-03T12:24:55.954Z,95475.68
2018-08-03T12:27:24.621Z,95474.08
2018-08-03T12:29:53.830Z,95473.13
2018-08-03T12:32:23.159Z,95477.48
2018-08-03T12:34:51.902Z,95469.41
2018-08-03T12:37:20.679Z,95462.84
2018-08-03T12:39:49.381Z,95466.13
2018-08-03T12:42:18.129Z,95452.13
2018-08-03T12:44:46.999Z,95462.63
2018-08-03T12:47:15.909Z,95459.06
2018-08-03T12:49:44.561Z,95458.64
2018-08-03T12:52:13.508Z,95461.28
2018-08-03T12:54:42.143Z,95453.91
2018-08-03T13:07:12.107Z,95447.27
2018-08-03T13:09:41.204Z,95455.33
2018-08-03T13:12:10.202Z,95448.41
2018-08-03T13:14:39.123Z,95449.45
2018-08-03T13:17:08.055Z,95455.35
2018-08-03T13:19:36.920Z,95446.38
2018-08-03T13:22:05.549Z,95453.77
2018-08-03T13:24:34.377Z,95293.91
2018-08-03T13:27:03.001Z,95448.06
2018-08-03T13:29:32.010Z,95447.02
2018-08-03T13:32:00.701Z,95446.19
2018-08-03T13:34:29.642Z,95451.51
2018-08-03T13:36:58.364Z,95445.86
2018-08-03T13:39:27.006Z,95452.10
2018-08-03T13:41:55.674Z,95447.05
2018-08-03T13:44:24.323Z,95447.66
2018-08-03T13:46:53.019Z,95451.83
2018-08-03T13:49:21.991Z,95444.04
2018-08-03T13:51:50.960Z,95440.83
2018-08-03T13:54:19.640Z,95442.12
2018-08-03T13:56:48.554Z,95443.24
2018-08-03T13:59:17.208Z,95438.57
2018-08-03T14:01:56.977Z,95429.84
2018-08-03T14:04:25.976Z,95432.47
2018-08-03T14:06:54.951Z,95428.49
2018-08-03T14:09:23.567Z,95434.05
2018-08-03T14:11:52.332Z,95432.41
2018-08-03T14:14:20.965Z,95433.62
2018-08-03T14:16:49.602Z,95428.28
2018-08-03T14:19:18.260Z,95424.27
2018-08-03T14:21:46.906Z,95427.41
2018-08-03T14:24:15.565Z,95426.08
2018-08-03T14:26:44.483Z,95425.69
2018-08-03T14:29:13.143Z,95422.06
2018-08-03T14:31:42.010Z,95424.70
2018-08-03T14:34:10.504Z,95421.22
2018-08-03T14:36:39.180Z,95418.44
2018-08-03T14:39:09.405Z,95419.83
2018-08-03T14:41:38.713Z,95410.45
2018-08-03T14:44:08.265Z,95407.95
2018-08-03T14:46:37.560Z,95410.78
2018-08-03T14:49:06.384Z,95410.27
2018-08-03T14:51:35.071Z,95410.60
2018-08-03T14:54:03.739Z,95407.16
2018-08-03T14:56:32.380Z,95404.17
2018-08-03T14:59:01.341Z,95404.06
2018-08-03T15:01:30.034Z,95406.47
2018-08-03T15:03:58.682Z,95411.31
2018-08-03T15:06:27.337Z,95409.72
2018-08-03T15:08:55.966Z,95413.72
2018-08-03T15:11:24.648Z,95416.16
2018-08-03T15:13:53.309Z,95403.39
2018-08-03T15:16:21.949Z,95402.80
2018-08-03T15:18:50.569Z,95405.14
2018-08-03T15:21:19.210Z,95404.63
2018-08-03T15:23:47.958Z,95413.78
2018-08-03T15:26:16.599Z,95401.31
2018-08-03T15:28:45.248Z,95375.52
2018-08-03T15:31:13.899Z,95407.89
2018-08-03T15:33:42.940Z,95406.84
2018-08-03T15:36:11.654Z,95412.42
2018-08-03T15:38:40.344Z,95420.16
2018-08-03T15:41:08.971Z,95415.66
2018-08-03T15:43:37.578Z,95413.92
2018-08-03T15:46:06.319Z,95413.24
2018-08-03T15:48:35.935Z,95419.83
2018-08-03T15:51:04.665Z,95410.91
2018-08-03T15:53:33.581Z,95410.13
2018-08-03T15:56:02.238Z,95416.08
2018-08-03T15:58:31.088Z,95420.07
2018-08-03T16:01:00.061Z,95418.77
2018-08-03T16:03:28.737Z,95419.97
2018-08-03T16:05:58.568Z,95425.97
2018-08-03T16:08:27.235Z,95424.53
2018-08-03T16:10:55.834Z,95426.41
2018-08-03T16:13:24.627Z,95426.32
2018-08-03T16:15:53.271Z,95427.48
2018-08-03T16:18:21.866Z,95433.52
2018-08-03T16:20:50.506Z,95433.35
2018-08-03T16:23:19.412Z,95438.16
2018-08-03T16:25:48.332Z,95435.48
2018-08-03T16:28:17.063Z,95444.97
2018-08-03T16:30:45.766Z,95433.91
2018-08-03T16:33:14.451Z,95440.91
2018-08-03T16:35:43.134Z,95442.69
2018-08-03T16:38:11.838Z,95438.05
2018-08-03T16:40:40.789Z,95448.31
2018-08-03T16:43:09.495Z,95440.35
2018-08-03T16:45:38.199Z,95442.49
2018-08-03T16:48:07.757Z,95440.20
2018-08-03T16:50:36.727Z,95439.02
2018-08-03T16:53:05.541Z,95437.59
2018-08-03T16:55:34.207Z,95433.64
2018-08-03T16:58:02.934Z,95439.81
2018-08-03T17:00:31.607Z,95449.42
2018-08-03T17:03:00.580Z,95449.88
2018-08-03T17:05:29.202Z,95446.22
2018-08-03T17:07:58.214Z,95441.77
2018-08-03T17:10:26.909Z,95452.57
2018-08-03T17:12:56.071Z,95447.24
2018-08-03T17:15:25.029Z,95448.78
2018-08-03T17:17:53.705Z,95451.27
2018-08-03T17:20:22.367Z,95455.89
2018-08-03T17:22:51.284Z,95456.13
2018-08-03T17:25:19.971Z,95458.70
2018-08-03T17:27:48.642Z,95460.27
2018-08-03T17:30:17.315Z,95459.64
2018-08-03T17:32:45.974Z,95463.67
2018-08-03T17:35:14.613Z,95469.98
2018-08-03T17:37:43.527Z,95467.52
2018-08-03T17:40:12.190Z,95472.30
2018-08-03T17:42:41.226Z,95468.98
2018-08-03T17:45:09.935Z,95473.59
2018-08-03T17:47:38.787Z,95477.38
2018-08-03T17:50:07.501Z,95480.05
2018-08-03T17:52:36.205Z,95480.52
2018-08-03T17:55:05.284Z,95477.56
2018-08-03T17:57:33.955Z,95479.96
2018-08-03T18:00:03.775Z,95481.41
2018-08-03T18:02:32.402Z,95476.29
2018-08-03T18:05:01.037Z,95481.17
2018-08-03T18:07:29.760Z,95482.72
2018-08-03T18:09:58.417Z,95486.86
2018-08-03T18:12:27.093Z,95485.25
2018-08-03T18:14:56.156Z,95489.26
2018-08-03T18:17:25.030Z,95488.70
2018-08-03T18:19:53.805Z,95494.32
2018-08-03T18:22:22.664Z,95503.09
2018-08-03T18:24:51.369Z,95503.55
2018-08-03T18:27:20.026Z,95510.05
2018-08-03T18:29:48.692Z,95517.36
2018-08-03T18:32:17.477Z,95513.66
2018-08-03T18:34:46.170Z,95516.58
2018-08-03T18:37:15.114Z,95514.28
2018-08-03T18:39:43.841Z,95522.25
2018-08-03T18:42:12.505Z,95528.21
2018-08-03T18:44:41.329Z,95534.37
2018-08-03T18:47:09.956Z,95530.44
2018-08-03T18:49:38.583Z,95526.70
2018-08-03T18:52:07.419Z,95527.94
2018-08-03T18:54:36.063Z,95524.08
2018-08-03T18:57:04.667Z,95526.86
2018-08-03T18:59:33.315Z,95522.20
2018-08-03T19:02:02.036Z,95520.20
2018-08-03T19:04:30.747Z,95521.80
2018-08-03T19:06:59.417Z,95520.28
2018-08-03T19:09:29.105Z,95521.71
2018-08-03T19:11:57.780Z,95529.05
2018-08-03T19:14:26.502Z,95533.25
2018-08-03T19:16:55.480Z,95531.03
2018-08-03T19:19:24.458Z,95535.22
2018-08-03T19:21:53.235Z,95537.61
2018-08-03T19:24:21.749Z,95539.42
2018-08-03T19:26:50.876Z,95543.35
2018-08-03T19:29:20.177Z,95543.75
2018-08-03T19:31:49.449Z,95541.00
2018-08-03T19:34:18.308Z,95537.30
2018-08-03T19:36:47.648Z,95538.70
2018-08-03T19:39:16.582Z,95544.52
2018-08-03T19:41:45.900Z,95539.44
2018-08-03T19:44:15.222Z,95534.47
2018-08-03T19:46:44.534Z,95538.82
2018-08-03T19:49:13.880Z,95541.56
2018-08-03T19:51:43.117Z,95541.38
2018-08-03T19:54:11.798Z,95539.77
2018-08-03T19:56:40.505Z,95538.92
2018-08-03T19:59:09.334Z,95520.76
2018-08-03T20:01:38.142Z,95523.00
2018-08-03T20:04:07.246Z,95529.36
2018-08-03T20:06:36.084Z,95523.94
2018-08-03T20:09:08.088Z,95532.08
2018-08-03T20:11:36.811Z,95537.59
2018-08-03T20:14:05.495Z,95533.61
2018-08-03T20:16:34.176Z,95537.20
2018-08-03T20:19:02.846Z,95534.59
2018-08-03T20:21:31.875Z,95533.41
2018-08-03T20:24:00.563Z,95538.52
2018-08-03T20:26:29.257Z,95541.16
2018-08-03T20:28:57.894Z,95538.62
2018-08-03T20:31:26.602Z,95538.20
2018-08-03T20:33:55.546Z,95532.33
2018-08-03T20:36:24.159Z,95535.45
2018-08-03T20:38:52.821Z,95532.42
2018-08-03T20:41:21.463Z,95533.78
2018-08-03T20:43:50.104Z,95535.23
2018-08-03T20:46:18.964Z,95538.47
2018-08-03T20:48:47.567Z,95541.65
2018-08-03T20:51:16.234Z,95549.84
2018-08-03T20:53:45.086Z,95554.59
2018-08-03T20:56:13.718Z,95550.54
2018-08-03T20:58:42.339Z,95550.19
2018-08-03T21:01:10.975Z,95544.14
2018-08-03T21:03:39.650Z,95548.47
2018-08-03T21:06:08.635Z,95548.09
2018-08-03T21:08:37.383Z,95554.98
2018-08-03T21:11:06.054Z,95555.16
2018-08-03T21:13:34.743Z,95552.62
2018-08-03T21:16:03.351Z,95557.03
2018-08-03T21:18:31.990Z,95564.83
2018-08-03T21:21:00.643Z,95557.55
2018-08-03T21:23:29.359Z,95559.34
2018-08-03T21:25:58.054Z,95566.45
2018-08-03T21:28:26.694Z,95567.27
2018-08-03T21:30:55.483Z,95563.97
2018-08-03T21:33:24.123Z,95568.88
2018-08-03T21:35:52.791Z,95569.05
2018-08-03T21:38:21.402Z,95577.75
2018-08-03T21:40:50.075Z,95572.84
2018-08-03T21:43:18.794Z,95572.69
2018-08-03T21:45:47.654Z,95570.92
2018-08-03T21:48:16.310Z,95564.65
2018-08-03T21:50:44.967Z,95574.06
2018-08-03T21:53:13.623Z,95566.03
2018-08-03T21:55:42.225Z,95577.81
2018-08-03T21:58:11.365Z,95578.61
2018-08-03T22:00:40.108Z,95585.48
2018-08-03T22:03:08.770Z,95585.45
2018-08-03T22:05:37.493Z,95580.50
2018-08-03T22:08:06.229Z,95586.55
2018-08-03T22:10:34.851Z,95589.45
2018-08-03T22:13:03.536Z,95587.86
2018-08-03T22:15:32.237Z,95588.20
2018-08-03T22:18:01.064Z,95586.59
2018-08-03T22:20:30.010Z,95587.94
2018-08-03T22:22:58.694Z,95594.97
2018-08-03T22:25:27.515Z,95593.20
2018-08-03T22:27:56.194Z,95589.42
2018-08-03T22:30:24.798Z,95588.56
2018-08-03T22:32:53.542Z,95585.43
2018-08-03T22:35:22.146Z,95592.23
2018-08-03T22:37:51.106Z,95590.25
2018-08-03T22:40:19.832Z,95588.30
2018-08-03T22:42:48.538Z,95590.61
2018-08-03T22:45:17.205Z,95587.52
2018-08-03T22:47:45.829Z,95584.02
2018-08-03T22:50:14.499Z,95582.87
2018-08-03T22:52:43.202Z,95582.44
2018-08-03T22:55:12.146Z,95578.80
2018-08-03T22:57:40.855Z,95569.86
2018-08-03T23:00:10.104Z,95569.40
2018-08-03T23:02:39.011Z,95561.19
2018-08-03T23:05:07.639Z,95561.00
2018-08-03T23:07:36.301Z,95569.83
2018-08-03T23:10:05.822Z,95560.64
2018-08-03T23:12:34.423Z,95562.77
2018-08-03T23:15:03.100Z,95561.40
2018-08-03T23:17:31.758Z,95568.45
2018-08-03T23:20:00.475Z,95562.19
2018-08-03T23:22:29.135Z,95560.58
2018-08-03T23:24:57.803Z,95560.36
2018-08-03T23:27:26.445Z,95561.36
2018-08-03T23:29:55.339Z,95557.84
2018-08-03T23:32:24.931Z,95565.47
2018-08-03T23:34:53.606Z,95567.23
2018-08-03T23:37:22.264Z,95563.70
2018-08-03T23:39:50.935Z,95560.97
2018-08-03T23:42:19.900Z,95560.17
2018-08-03T23:44:48.544Z,95551.39
2018-08-03T23:47:17.580Z,95543.60
2018-08-03T23:49:46.576Z,95558.45
2018-08-03T23:52:15.446Z,95556.50
2018-08-03T23:54:44.122Z,95555.89
2018-08-03T23:57:12.856Z,95554.12
2018-08-03T23:59:41.614Z,95558.73
